createdAt,value
2019-04-03T00:01:44.376Z,7.96
2019-04-03T00:04:18.171Z,7.93
2019-04-03T00:06:50.520Z,7.90
2019-04-03T00:09:22.951Z,7.89
2019-04-03T00:11:55.284Z,7.86
2019-04-03T00:14:27.761Z,7.83
2019-04-03T00:17:00.350Z,7.82
2019-04-03T00:19:34.515Z,7.79
2019-04-03T00:22:06.981Z,7.77
2019-04-03T00:24:39.488Z,7.70
2019-04-03T00:27:12.086Z,7.70
2019-04-03T00:29:44.827Z,7.63
2019-04-03T00:32:17.226Z,7.65
2019-04-03T00:34:49.896Z,7.62
2019-04-03T00:37:23.269Z,7.59
2019-04-03T00:39:56.108Z,7.55
2019-04-03T00:42:28.556Z,7.56
2019-04-03T00:45:00.917Z,7.52
2019-04-03T00:47:33.401Z,7.50
2019-04-03T00:50:07.998Z,7.46
2019-04-03T00:52:40.407Z,7.43
2019-04-03T00:55:13.187Z,7.45
2019-04-03T00:57:45.752Z,7.41
2019-04-03T01:00:18.216Z,7.35
2019-04-03T01:02:50.576Z,7.32
2019-04-03T01:05:22.961Z,7.32
2019-04-03T01:07:55.546Z,7.29
2019-04-03T01:10:29.654Z,7.25
2019-04-03T01:13:02.362Z,7.22
2019-04-03T01:15:35.597Z,7.19
2019-04-03T01:18:08.006Z,7.18
2019-04-03T01:20:40.622Z,7.15
2019-04-03T01:23:13.231Z,7.11
2019-04-03T01:25:46.191Z,7.10
2019-04-03T01:28:18.758Z,7.07
2019-04-03T01:30:51.236Z,7.04
2019-04-03T01:33:24.676Z,7.01
2019-04-03T01:35:57.281Z,6.98
2019-04-03T01:38:29.726Z,6.97
2019-04-03T01:41:02.257Z,6.97
2019-04-03T01:43:35.011Z,6.93
2019-04-03T01:46:07.446Z,6.93
2019-04-03T01:48:39.753Z,6.91
2019-04-03T01:51:12.426Z,6.87
2019-04-03T01:53:46.217Z,6.84
2019-04-03T01:56:18.715Z,6.86
2019-04-03T01:58:51.301Z,6.82
2019-04-03T02:01:23.963Z,6.80
2019-04-03T02:03:57.601Z,6.79
2019-04-03T02:06:30.186Z,6.79
2019-04-03T02:09:02.651Z,6.75
2019-04-03T02:11:36.160Z,6.70
2019-04-03T02:14:08.511Z,6.69
2019-04-03T02:16:41.012Z,6.65
2019-04-03T02:19:13.897Z,6.65
2019-04-03T02:21:46.236Z,6.63
2019-04-03T02:24:19.106Z,6.62
2019-04-03T02:26:51.719Z,6.57
2019-04-03T02:29:24.006Z,6.57
2019-04-03T02:31:56.631Z,6.55
2019-04-03T02:34:29.147Z,6.52
2019-04-03T02:37:01.591Z,6.51
2019-04-03T02:39:33.943Z,6.48
2019-04-03T02:42:08.854Z,6.43
2019-04-03T02:44:40.619Z,6.45
2019-04-03T02:47:13.199Z,6.41
2019-04-03T02:49:45.753Z,6.41
2019-04-03T02:52:18.108Z,6.36
2019-04-03T02:54:50.519Z,6.35
2019-04-03T02:57:22.961Z,6.33
2019-04-03T02:59:57.862Z,6.29
2019-04-03T03:02:29.693Z,6.26
2019-04-03T03:05:02.648Z,6.25
2019-04-03T03:07:36.298Z,6.24
2019-04-03T03:10:09.642Z,6.20
2019-04-03T03:12:42.373Z,6.17
2019-04-03T03:15:15.028Z,6.17
2019-04-03T03:17:47.572Z,6.12
2019-04-03T03:20:23.873Z,6.10
2019-04-03T03:22:56.485Z,6.07
2019-04-03T03:25:32.110Z,6.05
2019-04-03T03:28:03.106Z,6.00
2019-04-03T03:30:44.290Z,5.98
2019-04-03T03:33:26.994Z,5.96
2019-04-03T03:35:47.198Z,5.87
2019-04-03T03:38:18.313Z,5.82
2019-04-03T03:40:51.229Z,5.76
2019-04-03T03:43:23.801Z,5.69
2019-04-03T03:45:56.298Z,5.63
2019-04-03T03:48:28.928Z,5.61
2019-04-03T03:51:01.379Z,5.52
2019-04-03T03:53:34.478Z,5.48
2019-04-03T03:56:07.341Z,5.43
2019-04-03T03:58:40.301Z,5.38
2019-04-03T04:01:13.062Z,5.34
2019-04-03T04:03:45.986Z,5.28
2019-04-03T04:06:18.258Z,5.28
2019-04-03T04:08:50.977Z,5.27
2019-04-03T04:11:23.507Z,5.29
2019-04-03T04:13:55.800Z,5.29
2019-04-03T04:16:28.271Z,5.29
2019-04-03T04:19:00.946Z,5.27
2019-04-03T04:21:33.647Z,5.34
2019-04-03T04:24:05.993Z,5.27
2019-04-03T04:26:38.373Z,5.35
2019-04-03T04:29:11.513Z,5.25
2019-04-03T04:31:44.457Z,5.34
2019-04-03T04:34:18.907Z,5.28
2019-04-03T04:36:51.231Z,5.32
2019-04-03T04:39:23.402Z,5.29
2019-04-03T04:41:55.860Z,5.35
2019-04-03T04:44:28.270Z,5.32
2019-04-03T04:47:00.717Z,5.28
2019-04-03T04:49:33.002Z,5.45
2019-04-03T04:52:05.719Z,5.34
2019-04-03T04:54:38.194Z,5.25
2019-04-03T04:57:10.711Z,5.32
2019-04-03T04:59:45.190Z,5.29
2019-04-03T05:02:17.846Z,5.29
2019-04-03T05:04:51.257Z,5.35
2019-04-03T05:07:23.941Z,5.31
2019-04-03T05:09:58.010Z,5.28
2019-04-03T05:12:30.426Z,5.32
2019-04-03T05:15:03.044Z,5.36
2019-04-03T05:17:35.791Z,5.42
2019-04-03T05:20:08.501Z,5.50
2019-04-03T05:22:41.126Z,5.61
2019-04-03T05:25:13.941Z,5.70
2019-04-03T05:27:46.571Z,5.86
2019-04-03T05:30:29.324Z,5.96
2019-04-03T05:33:01.976Z,6.12
2019-04-03T05:35:37.416Z,6.28
2019-04-03T05:38:08.969Z,6.41
2019-04-03T05:40:41.560Z,6.59
2019-04-03T05:43:14.228Z,6.73
2019-04-03T05:45:46.671Z,6.80
2019-04-03T05:48:19.375Z,6.89
2019-04-03T05:50:52.311Z,7.03
2019-04-03T05:53:24.896Z,7.15
2019-04-03T05:55:57.476Z,7.29
2019-04-03T05:58:30.129Z,7.39
2019-04-03T06:01:06.209Z,7.55
2019-04-03T06:03:42.195Z,7.70
2019-04-03T06:06:13.995Z,7.84
2019-04-03T06:08:45.881Z,8.01
2019-04-03T06:11:20.654Z,8.12
2019-04-03T06:13:52.466Z,8.32
2019-04-03T06:16:25.245Z,8.48
2019-04-03T06:18:59.123Z,8.64
2019-04-03T06:21:32.681Z,8.80
2019-04-03T06:24:05.139Z,9.01
2019-04-03T06:26:38.510Z,9.18
2019-04-03T06:29:11.256Z,9.32
2019-04-03T06:31:43.981Z,9.43
2019-04-03T06:34:16.301Z,9.53
2019-04-03T06:36:50.762Z,9.67
2019-04-03T06:39:24.089Z,9.80
2019-04-03T06:41:57.014Z,9.91
2019-04-03T06:44:29.560Z,10.03
2019-04-03T06:47:02.054Z,10.17
2019-04-03T06:49:34.533Z,10.27
2019-04-03T06:52:07.282Z,10.43
2019-04-03T06:54:39.471Z,10.53
2019-04-03T06:57:13.896Z,10.63
2019-04-03T06:59:48.751Z,10.79
2019-04-03T07:02:21.012Z,10.91
2019-04-03T07:04:53.526Z,11.07
2019-04-03T07:07:33.001Z,11.17
2019-04-03T07:09:59.812Z,11.26
2019-04-03T07:12:32.270Z,11.37
2019-04-03T07:17:38.157Z,11.59
2019-04-03T07:20:15.364Z,11.69
2019-04-03T07:22:46.885Z,11.79
2019-04-03T07:25:19.148Z,11.86
2019-04-03T07:27:52.346Z,11.97
2019-04-03T07:30:24.573Z,12.07
2019-04-03T07:32:58.287Z,12.16
2019-04-03T07:35:32.501Z,12.20
2019-04-03T07:38:04.775Z,12.29
2019-04-03T07:40:37.619Z,12.37
2019-04-03T07:43:10.106Z,12.49
2019-04-03T07:45:43.862Z,12.60
2019-04-03T07:48:16.160Z,12.67
2019-04-03T07:50:48.538Z,12.79
2019-04-03T07:53:20.895Z,12.88
2019-04-03T07:55:55.112Z,13.00
2019-04-03T07:58:27.107Z,13.13
2019-04-03T08:00:59.447Z,13.23
2019-04-03T08:03:31.697Z,13.34
2019-04-03T08:06:04.446Z,13.45
2019-04-03T08:08:37.107Z,13.58
2019-04-03T08:11:10.426Z,13.66
2019-04-03T08:13:43.862Z,13.79
2019-04-03T08:16:16.696Z,13.92
2019-04-03T08:18:51.418Z,14.03
2019-04-03T08:21:24.044Z,14.13
2019-04-03T08:23:56.202Z,14.23
2019-04-03T08:26:28.381Z,14.32
2019-04-03T08:29:01.741Z,14.44
2019-04-03T08:31:34.441Z,14.51
2019-04-03T08:34:15.489Z,14.65
2019-04-03T08:36:40.701Z,14.80
2019-04-03T08:39:13.692Z,14.92
2019-04-03T08:41:47.571Z,15.07
2019-04-03T08:44:20.310Z,15.20
2019-04-03T08:46:52.998Z,15.30
2019-04-03T08:49:26.323Z,15.37
2019-04-03T08:51:59.360Z,15.47
2019-04-03T08:54:31.562Z,15.57
2019-04-03T08:57:04.398Z,15.64
2019-04-03T08:59:37.321Z,15.76
2019-04-03T09:02:12.723Z,15.88
2019-04-03T09:04:43.881Z,15.96
2019-04-03T09:07:16.537Z,16.06
2019-04-03T09:09:48.784Z,16.13
2019-04-03T09:12:21.232Z,16.23
2019-04-03T09:14:53.371Z,16.31
2019-04-03T09:17:25.807Z,16.41
2019-04-03T09:19:58.331Z,16.50
2019-04-03T09:22:32.243Z,16.55
2019-04-03T09:25:05.781Z,16.65
2019-04-03T09:27:39.847Z,16.78
2019-04-03T09:30:15.713Z,16.86
2019-04-03T09:32:47.764Z,16.95
2019-04-03T09:35:20.141Z,17.03
2019-04-03T09:37:52.281Z,17.14
2019-04-03T09:40:25.797Z,17.16
2019-04-03T09:42:58.321Z,17.20
2019-04-03T09:45:31.418Z,17.23
2019-04-03T09:48:05.609Z,17.24
2019-04-03T09:50:37.056Z,17.26
2019-04-03T09:53:09.176Z,17.27
2019-04-03T09:55:41.556Z,17.31
2019-04-03T09:58:14.155Z,17.38
2019-04-03T10:00:46.350Z,17.44
2019-04-03T10:03:18.841Z,17.48
2019-04-03T10:05:51.236Z,17.52
2019-04-03T10:08:23.752Z,17.57
2019-04-03T10:10:55.996Z,17.64
2019-04-03T10:13:28.376Z,17.72
2019-04-03T10:16:03.231Z,17.85
2019-04-03T10:18:34.516Z,17.97
2019-04-03T10:21:06.858Z,18.07
2019-04-03T10:23:39.156Z,18.10
2019-04-03T10:26:11.337Z,18.19
2019-04-03T10:28:46.863Z,18.30
2019-04-03T10:31:17.589Z,18.41
2019-04-03T10:33:49.916Z,18.48
2019-04-03T10:36:22.126Z,18.52
2019-04-03T10:38:54.216Z,18.54
2019-04-03T10:41:28.670Z,18.58
2019-04-03T10:44:00.636Z,18.65
2019-04-03T10:46:33.240Z,18.74
2019-04-03T10:49:05.516Z,18.83
2019-04-03T10:51:40.901Z,18.93
2019-04-03T10:54:11.956Z,18.99
2019-04-03T10:56:44.396Z,19.06
2019-04-03T10:59:18.475Z,19.10
2019-04-03T11:01:52.336Z,19.17
2019-04-03T11:04:24.638Z,19.22
2019-04-03T11:06:56.968Z,19.23
2019-04-03T11:09:29.156Z,19.31
2019-04-03T11:12:01.471Z,19.33
2019-04-03T11:14:34.156Z,19.37
2019-04-03T11:17:06.296Z,19.44
2019-04-03T11:19:38.771Z,19.47
2019-04-03T11:22:10.816Z,19.51
2019-04-03T11:24:43.322Z,19.55
2019-04-03T11:27:15.551Z,19.62
2019-04-03T11:29:49.764Z,19.68
2019-04-03T11:32:23.189Z,19.72
2019-04-03T11:34:56.330Z,19.75
2019-04-03T11:37:30.145Z,19.81
2019-04-03T11:40:05.445Z,19.85
2019-04-03T11:42:37.481Z,19.95
2019-04-03T11:45:10.881Z,19.99
2019-04-03T11:47:45.287Z,20.01
2019-04-03T11:50:18.036Z,20.03
2019-04-03T11:52:51.761Z,20.02
2019-04-03T11:55:24.494Z,20.05
2019-04-03T11:57:56.866Z,20.06
2019-04-03T12:00:32.052Z,20.08
2019-04-03T12:03:05.602Z,20.11
2019-04-03T12:05:38.321Z,20.16
2019-04-03T12:08:12.563Z,20.17
2019-04-03T12:10:45.267Z,20.22
2019-04-03T12:13:19.452Z,20.27
2019-04-03T12:15:53.504Z,20.37
2019-04-03T12:18:25.508Z,20.39
2019-04-03T12:20:58.157Z,20.41
2019-04-03T12:23:30.591Z,20.40
2019-04-03T12:26:03.802Z,20.43
2019-04-03T12:28:36.271Z,20.41
2019-04-03T12:31:08.918Z,20.41
2019-04-03T12:33:52.005Z,20.43
2019-04-03T12:36:15.058Z,20.40
2019-04-03T12:38:47.733Z,20.40
2019-04-03T12:41:19.961Z,20.41
2019-04-03T12:43:52.789Z,20.47
2019-04-03T12:46:37.869Z,20.51
2019-04-03T12:49:11.419Z,20.58
2019-04-03T12:51:43.776Z,20.62
2019-04-03T12:54:19.905Z,20.61
2019-04-03T12:56:50.378Z,20.60
2019-04-03T12:59:22.858Z,20.60
2019-04-03T13:01:55.184Z,20.62
2019-04-03T13:04:30.260Z,20.64
2019-04-03T13:07:04.489Z,20.68
2019-04-03T13:09:37.980Z,20.70
2019-04-03T13:12:09.923Z,20.75
2019-04-03T13:14:43.261Z,20.78
2019-04-03T13:17:15.816Z,20.78
2019-04-03T13:19:48.336Z,20.82
2019-04-03T13:22:20.564Z,20.84
2019-04-03T13:24:53.252Z,20.84
2019-04-03T13:27:25.717Z,20.85
2019-04-03T13:29:58.144Z,20.87
2019-04-03T13:32:30.546Z,20.85
2019-04-03T13:35:04.891Z,20.85
2019-04-03T13:37:37.602Z,20.85
2019-04-03T13:40:10.027Z,20.82
2019-04-03T13:42:43.897Z,20.82
2019-04-03T13:45:16.107Z,20.82
2019-04-03T13:47:48.257Z,20.84
2019-04-03T13:50:22.544Z,20.79
2019-04-03T13:52:54.682Z,20.78
2019-04-03T13:55:28.835Z,20.79
2019-04-03T13:58:01.181Z,20.77
2019-04-03T14:00:33.984Z,20.75
2019-04-03T14:03:06.317Z,20.75
2019-04-03T14:05:38.436Z,20.75
2019-04-03T14:08:12.877Z,20.74
2019-04-03T14:10:45.084Z,20.68
2019-04-03T14:13:17.789Z,20.68
2019-04-03T14:15:50.718Z,20.64
2019-04-03T14:18:23.157Z,20.62
2019-04-03T14:20:56.262Z,20.61
2019-04-03T14:23:29.575Z,20.54
2019-04-03T14:26:05.592Z,20.51
2019-04-03T14:28:37.423Z,20.48
2019-04-03T14:31:10.517Z,20.44
2019-04-03T14:33:46.267Z,20.41
2019-04-03T14:36:19.160Z,20.36
2019-04-03T14:38:51.715Z,20.33
2019-04-03T14:41:24.118Z,20.27
2019-04-03T14:43:56.502Z,20.20
2019-04-03T14:46:30.606Z,20.15
2019-04-03T14:49:04.354Z,20.11
2019-04-03T14:51:37.025Z,20.06
2019-04-03T14:54:09.183Z,20.01
2019-04-03T14:56:41.520Z,19.95
2019-04-03T14:59:14.475Z,19.91
2019-04-03T15:01:47.577Z,19.86
2019-04-03T15:04:19.854Z,19.82
2019-04-03T15:07:02.138Z,19.76
2019-04-03T15:09:27.937Z,19.71
2019-04-03T15:12:01.677Z,19.65
2019-04-03T15:14:34.668Z,19.58
2019-04-03T15:17:07.131Z,19.55
2019-04-03T15:19:39.458Z,19.51
2019-04-03T15:22:12.111Z,19.46
2019-04-03T15:24:44.656Z,19.40
2019-04-03T15:27:18.204Z,19.36
2019-04-03T15:29:50.617Z,19.29
2019-04-03T15:32:23.396Z,19.22
2019-04-03T15:34:58.736Z,19.17
2019-04-03T15:37:31.311Z,19.10
2019-04-03T15:40:04.757Z,19.06
2019-04-03T15:42:40.289Z,19.00
2019-04-03T15:45:11.754Z,18.98
2019-04-03T15:47:46.782Z,18.92
2019-04-03T15:50:19.195Z,18.86
2019-04-03T15:52:52.233Z,18.81
2019-04-03T15:55:25.403Z,18.75
2019-04-03T15:57:58.437Z,18.70
2019-04-03T16:00:33.676Z,18.64
2019-04-03T16:03:06.090Z,18.60
2019-04-03T16:05:38.634Z,18.54
2019-04-03T16:08:12.444Z,18.50
2019-04-03T16:10:45.711Z,18.44
2019-04-03T16:13:20.858Z,18.38
2019-04-03T16:15:56.354Z,18.33
2019-04-03T16:18:27.264Z,18.27
2019-04-03T16:20:59.537Z,18.20
2019-04-03T16:23:34.253Z,18.13
2019-04-03T16:26:06.712Z,18.09
2019-04-03T16:28:39.526Z,18.02
2019-04-03T16:31:12.767Z,17.96
2019-04-03T16:33:45.641Z,17.86
2019-04-03T16:36:18.670Z,17.82
2019-04-03T16:38:51.688Z,17.74
2019-04-03T16:41:24.652Z,17.65
2019-04-03T16:43:57.146Z,17.58
2019-04-03T16:46:29.862Z,17.52
2019-04-03T16:49:02.401Z,17.44
2019-04-03T16:51:35.763Z,17.34
2019-04-03T16:54:10.954Z,17.30
2019-04-03T16:56:42.667Z,17.21
2019-04-03T16:59:15.431Z,17.13
2019-04-03T17:01:48.496Z,17.05
2019-04-03T17:04:26.090Z,16.99
2019-04-03T17:06:55.690Z,16.88
2019-04-03T17:09:28.235Z,16.80
2019-04-03T17:12:01.096Z,16.72
2019-04-03T17:14:34.198Z,16.64
2019-04-03T17:17:12.442Z,16.58
2019-04-03T17:19:41.426Z,16.51
2019-04-03T17:22:14.254Z,16.43
2019-04-03T17:24:49.524Z,16.38
2019-04-03T17:27:21.514Z,16.30
2019-04-03T17:29:54.357Z,16.24
2019-04-03T17:32:28.969Z,16.16
2019-04-03T17:35:01.391Z,16.10
2019-04-03T17:37:33.851Z,16.01
2019-04-03T17:40:11.134Z,15.92
2019-04-03T17:42:43.946Z,15.86
2019-04-03T17:45:16.527Z,15.80
2019-04-03T17:47:49.724Z,15.73
2019-04-03T17:50:25.386Z,15.66
2019-04-03T17:52:58.011Z,15.61
2019-04-03T17:55:30.411Z,15.54
2019-04-03T17:58:02.914Z,15.48
2019-04-03T18:00:35.572Z,15.42
2019-04-03T18:03:08.161Z,15.37
2019-04-03T18:05:40.461Z,15.30
2019-04-03T18:08:12.931Z,15.25
2019-04-03T18:10:45.601Z,15.20
2019-04-03T18:13:18.091Z,15.14
2019-04-03T18:15:50.427Z,15.10
2019-04-03T18:18:23.226Z,15.04
2019-04-03T18:20:55.996Z,15.02
2019-04-03T18:23:28.631Z,14.92
2019-04-03T18:26:01.071Z,14.92
2019-04-03T18:28:33.941Z,14.85
2019-04-03T18:31:07.871Z,14.78
2019-04-03T18:33:40.876Z,14.72
2019-04-03T18:36:13.441Z,14.71
2019-04-03T18:38:46.066Z,14.65
2019-04-03T18:41:18.816Z,14.62
2019-04-03T18:43:54.146Z,14.59
2019-04-03T18:46:31.920Z,14.54
2019-04-03T18:49:01.582Z,14.51
2019-04-03T18:51:36.820Z,14.47
2019-04-03T18:54:09.749Z,14.45
2019-04-03T18:56:45.611Z,14.44
2019-04-03T18:59:18.037Z,14.41
2019-04-03T19:01:50.886Z,14.37
2019-04-03T19:04:26.366Z,14.34
2019-04-03T19:07:00.831Z,14.34
2019-04-03T19:09:33.026Z,14.29
2019-04-03T19:12:08.743Z,14.24
2019-04-03T19:14:40.741Z,14.25
2019-04-03T19:17:13.631Z,14.23
2019-04-03T19:19:46.311Z,14.21
2019-04-03T19:22:19.067Z,14.18
2019-04-03T19:24:51.922Z,14.14
2019-04-03T19:27:24.351Z,14.11
2019-04-03T19:29:57.336Z,14.07
2019-04-03T19:32:29.918Z,14.06
2019-04-03T19:35:02.583Z,14.03
2019-04-03T19:37:35.592Z,14.03
2019-04-03T19:40:09.888Z,13.99
2019-04-03T19:42:43.912Z,13.94
2019-04-03T19:45:16.618Z,13.92
2019-04-03T19:47:49.266Z,13.88
2019-04-03T19:50:22.061Z,13.86
2019-04-03T19:52:54.901Z,13.83
2019-04-03T19:55:27.401Z,13.76
2019-04-03T19:57:59.936Z,13.76
2019-04-03T20:00:34.677Z,13.69
2019-04-03T20:03:06.376Z,13.68
2019-04-03T20:05:39.202Z,13.65
2019-04-03T20:08:12.101Z,13.63
2019-04-03T20:10:44.399Z,13.59
2019-04-03T20:13:17.041Z,13.56
2019-04-03T20:15:49.311Z,13.52
2019-04-03T20:18:21.681Z,13.48
2019-04-03T20:20:54.456Z,13.44
2019-04-03T20:23:29.952Z,13.38
2019-04-03T20:26:01.217Z,13.38
2019-04-03T20:28:33.736Z,13.32
2019-04-03T20:31:06.153Z,13.31
2019-04-03T20:33:42.080Z,13.28
2019-04-03T20:36:16.557Z,13.24
2019-04-03T20:38:48.686Z,13.20
2019-04-03T20:41:21.092Z,13.18
2019-04-03T20:43:53.513Z,13.14
2019-04-03T20:46:25.871Z,13.11
2019-04-03T20:48:58.746Z,13.07
2019-04-03T20:51:32.802Z,13.06
2019-04-03T20:54:05.566Z,13.03
2019-04-03T20:56:37.943Z,12.99
2019-04-03T20:59:12.038Z,13.00
2019-04-03T21:01:44.858Z,12.97
2019-04-03T21:04:17.144Z,12.92
2019-04-03T21:06:51.518Z,12.90
2019-04-03T21:09:23.626Z,12.88
2019-04-03T21:11:56.361Z,12.84
2019-04-03T21:14:29.051Z,12.83
2019-04-03T21:17:01.782Z,12.82
2019-04-03T21:19:34.456Z,12.77
2019-04-03T21:22:07.333Z,12.76
2019-04-03T21:24:39.861Z,12.75
2019-04-03T21:27:12.541Z,12.72
2019-04-03T21:29:45.318Z,12.67
2019-04-03T21:32:17.881Z,12.62
2019-04-03T21:34:50.819Z,12.59
2019-04-03T21:37:23.451Z,12.56
2019-04-03T21:39:56.016Z,12.53
2019-04-03T21:42:28.296Z,12.51
2019-04-03T21:45:02.755Z,12.47
2019-04-03T21:47:35.441Z,12.44
2019-04-03T21:50:08.061Z,12.42
2019-04-03T21:52:40.451Z,12.38
2019-04-03T21:55:13.001Z,12.34
2019-04-03T21:57:45.436Z,12.29
2019-04-03T22:00:24.141Z,12.27
2019-04-03T22:02:57.221Z,12.23
2019-04-03T22:05:29.901Z,12.16
2019-04-03T22:08:02.191Z,12.16
2019-04-03T22:10:35.075Z,12.07
2019-04-03T22:13:08.301Z,12.05
2019-04-03T22:15:40.886Z,11.98
2019-04-03T22:18:13.601Z,11.94
2019-04-03T22:20:46.396Z,11.91
2019-04-03T22:23:18.761Z,11.89
2019-04-03T22:25:51.177Z,11.86
2019-04-03T22:28:23.745Z,11.80
2019-04-03T22:30:56.101Z,11.74
2019-04-03T22:33:28.565Z,11.70
2019-04-03T22:36:01.266Z,11.68
2019-04-03T22:38:37.188Z,11.63
2019-04-03T22:41:12.126Z,11.61
2019-04-03T22:43:44.114Z,11.55
2019-04-03T22:46:18.241Z,11.49
2019-04-03T22:48:50.655Z,11.45
2019-04-03T22:51:22.936Z,11.41
2019-04-03T22:53:55.421Z,11.39
2019-04-03T22:56:28.671Z,11.34
2019-04-03T22:59:01.367Z,11.29
2019-04-03T23:01:33.696Z,11.24
2019-04-03T23:04:06.245Z,11.21
2019-04-03T23:06:38.941Z,11.15
2019-04-03T23:09:11.520Z,11.10
2019-04-03T23:11:44.216Z,11.01
2019-04-03T23:14:16.831Z,11.01
2019-04-03T23:16:49.321Z,10.96
2019-04-03T23:19:21.771Z,10.90
2019-04-03T23:21:54.840Z,10.84
2019-04-03T23:24:28.886Z,10.83
2019-04-03T23:27:02.676Z,10.79
2019-04-03T23:29:36.582Z,10.75
2019-04-03T23:32:09.432Z,10.70
2019-04-03T23:34:41.841Z,10.69
2019-04-03T23:37:14.400Z,10.68
2019-04-03T23:39:47.036Z,10.68
2019-04-03T23:42:19.658Z,10.63
2019-04-03T23:44:52.071Z,10.62
2019-04-03T23:47:24.602Z,10.59
2019-04-03T23:49:57.180Z,10.58
2019-04-03T23:52:30.791Z,10.55
2019-04-03T23:55:04.810Z,10.52
2019-04-03T23:57:39.586Z,10.50
